Time;durP1;ratioP1;P1;durP2;ratioP2;P2;SDS_P1;SDS_P2;PMS_P1;PMS_P2;Temp;Humidity;BMP_temperature;BMP_pressure;BME280_temperature;BME280_humidity;BME280_pressure;Samples;Min_cycle;Max_cycle;Signal;HPM_P1;HPM_P2
2022/05/08 00:00:29;;;;;;;19.35;5.68;;;8.70;99.90;;;;;;5030751;28;20411;-76
2022/05/08 00:02:55;;;;;;;16.23;4.88;;;8.60;99.90;;;;;;5030179;28;20563;-76
2022/05/08 00:05:21;;;;;;;18.80;4.00;;;8.60;99.90;;;;;;5047247;28;20041;-76
2022/05/08 00:07:47;;;;;;;16.77;4.15;;;8.60;99.90;;;;;;5022103;28;20053;-76
2022/05/08 00:10:13;;;;;;;19.33;5.05;;;8.50;99.90;;;;;;5029497;28;20049;-76
2022/05/08 00:12:38;;;;;;;21.80;4.82;;;8.50;99.90;;;;;;5031189;28;20048;-76
2022/05/08 00:15:04;;;;;;;15.00;4.20;;;8.50;99.90;;;;;;5030512;28;20049;-76
2022/05/08 00:17:34;;;;;;;20.27;5.10;;;8.50;99.90;;;;;;5046865;28;20049;-76
2022/05/08 00:20:01;;;;;;;14.85;4.47;;;8.50;99.90;;;;;;5030795;28;20053;-76
2022/05/08 00:22:27;;;;;;;15.82;4.45;;;8.40;99.90;;;;;;5024606;28;20049;-76
2022/05/08 00:24:52;;;;;;;13.50;4.35;;;8.40;99.90;;;;;;5048999;28;20045;-76
2022/05/08 00:27:19;;;;;;;25.63;5.15;;;8.40;99.90;;;;;;5030226;28;20041;-76
2022/05/08 00:29:44;;;;;;;17.77;4.55;;;8.40;99.90;;;;;;5047378;28;20049;-76
2022/05/08 00:32:10;;;;;;;20.85;4.65;;;8.40;99.90;;;;;;5026893;28;20041;-76
2022/05/08 00:34:36;;;;;;;20.25;4.72;;;8.30;99.90;;;;;;5030042;28;20045;-76
2022/05/08 00:37:01;;;;;;;17.95;4.28;;;8.40;99.90;;;;;;5027762;28;20052;-76
2022/05/08 00:39:27;;;;;;;15.88;4.53;;;8.30;99.90;;;;;;5048077;28;20076;-76
2022/05/08 00:41:52;;;;;;;18.08;5.72;;;8.20;99.90;;;;;;5029779;28;20488;-76
2022/05/08 00:44:18;;;;;;;15.85;4.57;;;8.20;99.90;;;;;;5033374;28;20068;-76
2022/05/08 00:46:44;;;;;;;19.48;4.57;;;8.20;99.90;;;;;;5051725;28;20049;-76
2022/05/08 00:49:09;;;;;;;17.40;4.75;;;8.20;99.90;;;;;;5051808;28;20052;-76
2022/05/08 00:51:38;;;;;;;15.00;4.38;;;8.20;99.90;;;;;;5051137;28;20053;-76
2022/05/08 00:54:04;;;;;;;14.20;4.95;;;8.20;99.90;;;;;;5052520;28;20037;-76
2022/05/08 00:56:30;;;;;;;20.35;4.82;;;8.20;99.90;;;;;;5033936;28;20060;-76
2022/05/08 00:58:56;;;;;;;17.60;4.80;;;8.20;99.90;;;;;;5051490;28;20625;-76
2022/05/08 01:01:22;;;;;;;14.70;3.97;;;8.10;99.90;;;;;;5030576;28;20045;-76
2022/05/08 01:03:48;;;;;;;13.52;4.32;;;8.10;99.90;;;;;;5051789;28;20041;-76
2022/05/08 01:06:16;;;;;;;14.55;4.22;;;8.10;99.90;;;;;;5051600;28;20091;-76
2022/05/08 01:08:46;;;;;;;16.27;4.28;;;8.00;99.90;;;;;;5047722;28;20443;-76
2022/05/08 01:11:13;;;;;;;17.02;3.75;;;8.00;99.90;;;;;;5033395;28;20068;-76
2022/05/08 01:13:40;;;;;;;13.88;3.65;;;8.00;99.90;;;;;;5050380;28;20102;-76
2022/05/08 01:16:11;;;;;;;11.52;3.80;;;8.00;99.90;;;;;;5051980;28;20404;-76
2022/05/08 01:18:37;;;;;;;16.20;4.18;;;8.00;99.90;;;;;;5050931;28;20538;-76
2022/05/08 01:21:06;;;;;;;17.58;4.53;;;8.00;99.90;;;;;;5033596;28;20053;-76
2022/05/08 01:23:31;;;;;;;20.00;4.75;;;7.90;99.90;;;;;;5027740;28;20074;-76
2022/05/08 01:25:57;;;;;;;14.55;4.25;;;7.90;99.90;;;;;;5051003;28;20060;-76
2022/05/08 01:28:25;;;;;;;13.85;4.20;;;7.90;99.90;;;;;;5032557;28;20071;-76
2022/05/08 01:30:52;;;;;;;14.23;4.35;;;7.80;99.90;;;;;;5032323;28;20052;-76
2022/05/08 01:33:19;;;;;;;21.83;4.78;;;7.80;99.90;;;;;;5048543;28;20114;-76
2022/05/08 01:35:45;;;;;;;18.00;5.10;;;7.80;99.90;;;;;;5048697;28;20041;-75
2022/05/08 01:38:13;;;;;;;14.38;4.30;;;7.80;99.90;;;;;;5050655;28;20389;-76
2022/05/08 01:40:39;;;;;;;19.23;4.97;;;7.80;99.90;;;;;;5049906;28;20045;-76
2022/05/08 01:43:06;;;;;;;16.30;5.00;;;7.70;99.90;;;;;;5064815;28;20057;-76
2022/05/08 01:45:32;;;;;;;21.65;5.32;;;7.70;99.90;;;;;;5031865;28;20044;-75
2022/05/08 01:50:42;;;;;;;14.75;4.65;;;7.70;99.90;;;;;;5050378;28;20439;-76
2022/05/08 01:53:08;;;;;;;17.52;4.60;;;7.60;99.90;;;;;;5033244;28;20051;-76
2022/05/08 01:55:35;;;;;;;17.00;4.60;;;7.60;99.90;;;;;;5032913;28;20136;-76
2022/05/08 01:58:01;;;;;;;13.35;3.97;;;7.60;99.90;;;;;;5033363;28;20087;-76
2022/05/08 02:00:28;;;;;;;15.02;4.30;;;7.60;99.90;;;;;;5045850;28;20496;-76
2022/05/08 02:02:57;;;;;;;19.38;4.70;;;7.60;99.90;;;;;;5051526;28;20098;-76
2022/05/08 02:05:23;;;;;;;15.73;4.82;;;7.60;99.90;;;;;;5050508;28;20103;-75
2022/05/08 02:07:49;;;;;;;16.20;4.43;;;7.50;99.90;;;;;;5048457;28;20052;-75
2022/05/08 02:10:16;;;;;;;17.73;3.80;;;7.50;99.90;;;;;;5046621;28;20049;-76
2022/05/08 02:12:42;;;;;;;16.00;3.63;;;7.50;99.90;;;;;;5050371;28;20400;-76
2022/05/08 02:15:10;;;;;;;13.82;3.85;;;7.50;99.90;;;;;;5032472;28;20395;-76
2022/05/08 02:17:36;;;;;;;15.18;3.53;;;7.60;99.90;;;;;;5049242;28;20381;-76
2022/05/08 02:20:04;;;;;;;17.77;3.88;;;7.50;99.90;;;;;;5050573;28;20412;-76
2022/05/08 02:22:29;;;;;;;18.65;4.00;;;7.40;99.90;;;;;;5044358;28;20048;-76
2022/05/08 02:24:55;;;;;;;21.35;4.43;;;7.40;99.90;;;;;;5050230;28;20136;-75
2022/05/08 02:27:21;;;;;;;15.60;3.70;;;7.40;99.90;;;;;;5031756;28;20057;-76
2022/05/08 02:29:51;;;;;;;16.50;4.38;;;7.40;99.90;;;;;;5048988;28;20575;-75
2022/05/08 02:32:18;;;;;;;11.35;3.47;;;7.30;99.90;;;;;;5029934;28;20481;-76
2022/05/08 02:34:44;;;;;;;16.67;3.30;;;7.30;99.90;;;;;;5049076;28;20599;-76
2022/05/08 02:37:09;;;;;;;9.95;3.38;;;7.30;99.90;;;;;;5044959;28;20049;-75
2022/05/08 02:39:35;;;;;;;14.25;3.47;;;7.30;99.90;;;;;;5050251;28;20073;-76
2022/05/08 02:42:01;;;;;;;18.63;3.47;;;7.20;99.90;;;;;;5050729;28;20417;-76
2022/05/08 02:44:26;;;;;;;12.63;2.97;;;7.20;99.90;;;;;;5031178;28;20182;-76
2022/05/08 02:46:52;;;;;;;18.15;3.53;;;7.20;99.90;;;;;;5050065;28;20075;-75
2022/05/08 02:49:18;;;;;;;14.15;3.30;;;7.20;99.90;;;;;;5031818;28;20067;-75
2022/05/08 02:51:44;;;;;;;15.88;4.00;;;7.20;99.90;;;;;;5048134;28;20076;-75
2022/05/08 02:54:09;;;;;;;16.77;3.58;;;7.10;99.90;;;;;;5032176;28;20118;-76
2022/05/08 02:59:19;;;;;;;13.97;3.13;;;7.10;99.90;;;;;;5063562;28;20041;-76
2022/05/08 03:01:45;;;;;;;15.70;3.60;;;7.10;99.90;;;;;;5044043;28;20823;-76
2022/05/08 03:04:10;;;;;;;8.40;3.05;;;7.10;99.90;;;;;;5030647;28;20488;-75
2022/05/08 03:06:36;;;;;;;11.32;3.08;;;7.10;99.90;;;;;;5048720;28;20392;-76
2022/05/08 03:09:02;;;;;;;12.38;3.17;;;7.00;99.90;;;;;;5027598;28;20037;-76
2022/05/08 03:11:29;;;;;;;15.13;3.55;;;7.00;99.90;;;;;;5030015;28;20103;-76
2022/05/08 03:13:57;;;;;;;12.25;3.15;;;7.00;99.90;;;;;;5030861;28;20495;-76
2022/05/08 03:16:23;;;;;;;11.20;3.10;;;7.00;99.90;;;;;;5048592;28;20373;-75
2022/05/08 03:18:50;;;;;;;14.80;3.22;;;7.00;99.90;;;;;;5029994;28;20045;-76
2022/05/08 03:21:16;;;;;;;13.55;3.63;;;7.00;99.90;;;;;;5049359;28;20053;-75
2022/05/08 03:23:43;;;;;;;10.50;2.80;;;6.90;99.90;;;;;;5025201;28;20053;-75
2022/05/08 03:26:09;;;;;;;13.57;3.80;;;6.90;99.90;;;;;;5029878;28;20095;-75
2022/05/08 03:28:39;;;;;;;12.70;2.88;;;6.90;99.90;;;;;;5029828;28;20044;-76
2022/05/08 03:31:05;;;;;;;11.65;3.33;;;6.90;99.90;;;;;;5022172;28;20053;-76
2022/05/08 03:33:32;;;;;;;10.20;3.20;;;6.90;99.90;;;;;;5028694;28;20041;-76
2022/05/08 03:35:58;;;;;;;13.88;3.25;;;7.00;99.90;;;;;;5047435;28;20048;-75
2022/05/08 03:38:24;;;;;;;11.00;2.92;;;6.80;99.90;;;;;;5048240;28;20549;-75
2022/05/08 03:40:50;;;;;;;16.23;3.10;;;6.80;99.90;;;;;;5027028;28;20041;-75
2022/05/08 03:43:16;;;;;;;10.48;2.63;;;6.80;99.90;;;;;;5031371;28;20041;-75
2022/05/08 03:45:44;;;;;;;11.57;2.75;;;6.80;99.90;;;;;;5048017;28;20492;-75
2022/05/08 03:48:10;;;;;;;14.50;2.63;;;6.80;99.90;;;;;;5061414;28;20045;-76
2022/05/08 03:50:37;;;;;;;9.40;2.90;;;6.80;99.90;;;;;;5044533;28;20048;-75
2022/05/08 03:53:03;;;;;;;10.27;3.10;;;6.80;99.90;;;;;;5045527;28;20044;-75
2022/05/08 03:55:29;;;;;;;13.70;3.30;;;6.80;99.90;;;;;;5047676;28;20047;-75
2022/05/08 03:57:56;;;;;;;13.50;2.83;;;6.80;99.90;;;;;;5048585;28;21003;-75
2022/05/08 04:00:22;;;;;;;16.13;3.22;;;6.80;99.90;;;;;;5031214;28;20041;-75
2022/05/08 04:02:49;;;;;;;10.00;2.65;;;6.80;99.90;;;;;;5030429;28;20538;-75
2022/05/08 04:05:15;;;;;;;12.02;2.72;;;6.70;99.90;;;;;;5045536;28;20409;-75
2022/05/08 04:07:42;;;;;;;11.73;2.88;;;6.80;99.90;;;;;;5047145;28;20029;-75
2022/05/08 04:10:09;;;;;;;13.90;2.85;;;6.70;99.90;;;;;;5048680;28;20057;-76
2022/05/08 04:12:36;;;;;;;12.30;3.35;;;6.70;99.90;;;;;;5047059;28;20041;-75
2022/05/08 04:15:03;;;;;;;12.73;3.78;;;6.70;99.90;;;;;;5052016;28;20479;-75
2022/05/08 04:17:30;;;;;;;16.58;3.00;;;6.70;99.90;;;;;;5034598;28;20048;-76
2022/05/08 04:19:55;;;;;;;10.70;2.90;;;6.70;99.90;;;;;;5031333;28;20107;-76
2022/05/08 04:25:07;;;;;;;7.18;2.20;;;6.80;99.90;;;;;;5050768;28;20053;-76
2022/05/08 04:27:37;;;;;;;10.88;2.33;;;6.80;99.90;;;;;;5047155;28;20684;-76
2022/05/08 04:30:04;;;;;;;7.97;2.38;;;6.90;99.90;;;;;;5036106;28;20453;-76
2022/05/08 04:32:31;;;;;;;7.50;2.28;;;6.80;99.90;;;;;;5048071;28;20110;-75
2022/05/08 04:34:56;;;;;;;10.70;2.28;;;6.80;99.90;;;;;;5014388;28;20045;-76
2022/05/08 04:37:22;;;;;;;10.15;2.42;;;6.80;99.90;;;;;;5032771;28;20099;-76
2022/05/08 04:39:48;;;;;;;8.85;2.03;;;6.80;99.90;;;;;;5051676;28;20459;-76
2022/05/08 04:42:14;;;;;;;9.40;2.50;;;6.90;99.90;;;;;;5033981;28;20040;-76
2022/05/08 04:44:43;;;;;;;9.32;2.90;;;6.80;99.90;;;;;;5049882;28;20507;-75
2022/05/08 04:47:08;;;;;;;6.05;2.05;;;6.90;99.90;;;;;;5035411;28;20084;-75
2022/05/08 04:49:35;;;;;;;12.85;2.75;;;6.90;99.90;;;;;;5053257;28;20033;-75
2022/05/08 04:52:01;;;;;;;9.15;1.88;;;6.90;99.90;;;;;;5053444;28;20044;-75
2022/05/08 04:54:28;;;;;;;9.27;2.30;;;6.90;99.90;;;;;;5053292;28;20057;-75
2022/05/08 04:56:53;;;;;;;7.45;2.13;;;6.90;99.90;;;;;;5034675;28;20480;-75
2022/05/08 04:59:19;;;;;;;9.48;2.00;;;7.00;99.90;;;;;;5034377;28;20107;-75
2022/05/08 05:01:45;;;;;;;12.23;2.42;;;7.00;99.90;;;;;;5051366;28;20045;-75
2022/05/08 05:04:10;;;;;;;8.20;2.05;;;7.00;99.90;;;;;;5033400;28;20041;-75
2022/05/08 05:06:36;;;;;;;9.20;1.88;;;7.10;99.90;;;;;;5051710;28;20123;-75
2022/05/08 05:09:01;;;;;;;6.53;2.05;;;7.10;99.90;;;;;;5034704;28;20060;-75
2022/05/08 05:11:27;;;;;;;7.68;2.05;;;7.40;99.90;;;;;;5051796;28;20119;-75
2022/05/08 05:13:52;;;;;;;8.02;2.30;;;7.10;99.90;;;;;;5053017;28;20041;-76
2022/05/08 05:16:18;;;;;;;10.50;2.30;;;7.20;99.90;;;;;;5053639;28;20048;-76
2022/05/08 05:18:44;;;;;;;9.77;2.35;;;7.20;99.90;;;;;;5052346;28;20048;-78
2022/05/08 05:21:10;;;;;;;8.00;2.08;;;7.20;99.90;;;;;;5034907;28;20049;-76
2022/05/08 05:23:35;;;;;;;9.23;2.20;;;7.30;99.90;;;;;;5030112;28;20048;-76
2022/05/08 05:26:01;;;;;;;12.55;2.50;;;7.30;99.90;;;;;;5051410;28;20136;-75
2022/05/08 05:28:31;;;;;;;11.52;2.38;;;7.40;99.90;;;;;;5052926;28;20036;-75
2022/05/08 05:30:57;;;;;;;10.32;2.38;;;7.50;99.90;;;;;;5052900;28;20498;-76
2022/05/08 05:33:22;;;;;;;8.57;1.88;;;7.50;99.90;;;;;;5047072;28;20080;-76
2022/05/08 05:35:48;;;;;;;7.72;1.85;;;7.60;99.90;;;;;;5033860;28;20048;-76
2022/05/08 05:38:13;;;;;;;5.95;1.90;;;7.70;99.90;;;;;;5033863;28;20041;-76
2022/05/08 05:40:39;;;;;;;14.00;2.30;;;7.70;99.90;;;;;;5052882;28;20190;-76
2022/05/08 05:43:05;;;;;;;8.02;2.10;;;7.80;99.90;;;;;;5052769;28;20041;-76
2022/05/08 05:45:30;;;;;;;10.20;1.55;;;7.90;99.90;;;;;;5052172;28;20041;-76
2022/05/08 05:47:59;;;;;;;7.70;1.80;;;8.00;99.90;;;;;;5033381;28;20097;-77
2022/05/08 05:50:25;;;;;;;9.70;1.58;;;8.00;99.90;;;;;;5052004;28;20126;-76
2022/05/08 05:52:52;;;;;;;7.65;1.67;;;8.00;99.90;;;;;;5059093;28;20129;-77
2022/05/08 05:55:19;;;;;;;10.27;1.95;;;8.00;99.90;;;;;;5047576;28;20056;-77
2022/05/08 05:57:44;;;;;;;12.65;2.03;;;8.10;99.90;;;;;;5048729;28;20047;-77
2022/05/08 06:00:15;;;;;;;8.85;1.50;;;8.10;99.90;;;;;;5051824;28;20041;-77
2022/05/08 06:02:43;;;;;;;8.02;2.20;;;8.10;99.90;;;;;;5034110;28;20049;-77
2022/05/08 06:05:10;;;;;;;8.60;1.83;;;8.10;99.90;;;;;;5034428;28;20098;-77
2022/05/08 06:07:36;;;;;;;8.65;1.60;;;8.20;99.90;;;;;;5051657;28;20469;-77
2022/05/08 06:10:05;;;;;;;12.05;1.75;;;8.30;99.90;;;;;;5051697;28;21145;-77
2022/05/08 06:12:30;;;;;;;10.82;1.80;;;8.40;99.90;;;;;;5051965;28;20052;-79
2022/05/08 06:14:56;;;;;;;9.10;2.20;;;8.50;99.90;;;;;;5034029;28;20116;-80
2022/05/08 06:17:22;;;;;;;11.40;1.90;;;8.60;99.90;;;;;;5050950;28;20538;-80
2022/05/08 06:19:47;;;;;;;8.48;1.98;;;8.70;99.90;;;;;;5051680;28;20512;-80
2022/05/08 06:22:13;;;;;;;9.30;1.80;;;8.80;99.90;;;;;;5050931;28;20119;-80
2022/05/08 06:24:38;;;;;;;7.05;1.50;;;8.90;99.90;;;;;;5043124;28;20041;-81
2022/05/08 06:27:07;;;;;;;12.07;1.83;;;9.10;99.90;;;;;;5051908;28;20037;-79
2022/05/08 06:29:34;;;;;;;11.60;2.05;;;9.10;99.90;;;;;;5051516;28;20041;-80
2022/05/08 06:32:00;;;;;;;13.45;1.80;;;9.20;99.90;;;;;;5034109;28;20051;-79
2022/05/08 06:34:27;;;;;;;10.52;1.50;;;9.20;99.90;;;;;;5032871;28;20575;-77
2022/05/08 06:36:53;;;;;;;5.32;1.35;;;9.20;99.90;;;;;;5050320;28;20506;-76
2022/05/08 06:39:18;;;;;;;9.82;2.05;;;9.20;99.90;;;;;;5047537;28;20437;-75
2022/05/08 06:41:44;;;;;;;8.30;1.20;;;9.30;99.90;;;;;;5044439;28;20040;-75
2022/05/08 06:44:09;;;;;;;11.07;1.30;;;9.30;99.90;;;;;;5046196;28;20044;-75
2022/05/08 06:46:36;;;;;;;10.68;1.60;;;9.40;99.90;;;;;;5051270;28;20036;-75
2022/05/08 06:49:06;;;;;;;9.40;1.75;;;9.50;99.90;;;;;;5047234;28;20068;-75
2022/05/08 06:51:33;;;;;;;8.25;1.10;;;9.50;99.90;;;;;;5042423;28;20071;-76
2022/05/08 06:53:59;;;;;;;8.35;2.00;;;9.50;99.90;;;;;;5052093;28;20037;-75
2022/05/08 06:56:26;;;;;;;6.63;1.42;;;9.50;99.90;;;;;;5051646;28;20055;-75
2022/05/08 07:01:38;;;;;;;14.63;1.85;;;9.70;99.90;;;;;;5024226;28;20052;-75
2022/05/08 07:04:08;;;;;;;9.63;1.48;;;9.80;99.90;;;;;;5046191;28;20057;-75
2022/05/08 07:06:35;;;;;;;8.90;1.48;;;9.90;99.90;;;;;;5050525;28;20450;-75
2022/05/08 07:09:00;;;;;;;9.32;1.33;;;10.00;99.90;;;;;;5051825;28;20112;-75
2022/05/08 07:11:26;;;;;;;8.75;1.60;;;10.10;99.90;;;;;;5049662;28;20045;-75
2022/05/08 07:13:52;;;;;;;8.75;1.67;;;10.10;99.90;;;;;;5048029;28;20065;-75
2022/05/08 07:16:18;;;;;;;12.07;1.92;;;10.10;99.90;;;;;;5049628;28;20078;-75
2022/05/08 07:18:43;;;;;;;8.27;1.75;;;10.10;99.90;;;;;;5036938;28;20381;-75
2022/05/08 07:21:09;;;;;;;9.20;1.65;;;10.20;99.90;;;;;;5032643;28;20049;-75
2022/05/08 07:23:34;;;;;;;11.40;1.40;;;10.20;99.90;;;;;;5045311;28;20052;-75
2022/05/08 07:26:00;;;;;;;5.57;1.40;;;10.40;99.90;;;;;;5032318;28;20049;-75
2022/05/08 07:28:27;;;;;;;8.88;1.67;;;10.50;99.90;;;;;;5032299;28;20470;-75
2022/05/08 07:30:54;;;;;;;10.95;2.00;;;10.50;99.90;;;;;;5047703;28;20037;-75
2022/05/08 07:33:19;;;;;;;13.50;1.80;;;10.60;99.90;;;;;;5059594;28;20029;-75
2022/05/08 07:38:30;;;;;;;6.80;1.65;;;10.50;99.90;;;;;;5043751;28;20057;-75
2022/05/08 07:40:57;;;;;;;12.70;1.83;;;10.50;99.90;;;;;;5048473;28;20045;-75
2022/05/08 07:43:23;;;;;;;6.53;1.20;;;10.50;99.90;;;;;;5049211;28;20036;-75
2022/05/08 07:45:48;;;;;;;8.77;1.73;;;10.50;99.90;;;;;;5046301;28;20040;-75
2022/05/08 07:48:16;;;;;;;8.88;1.80;;;10.60;99.90;;;;;;5045428;28;20040;-75
2022/05/08 07:50:42;;;;;;;9.23;1.60;;;10.70;99.90;;;;;;5049423;28;20041;-75
2022/05/08 07:53:08;;;;;;;8.45;1.42;;;10.90;99.90;;;;;;5049455;28;20384;-75
2022/05/08 07:55:34;;;;;;;7.95;1.65;;;11.00;99.90;;;;;;5031098;28;20055;-75
2022/05/08 07:58:00;;;;;;;11.02;2.00;;;11.10;99.90;;;;;;5049170;28;20121;-75
2022/05/08 08:00:25;;;;;;;9.25;1.67;;;11.20;99.90;;;;;;5048912;28;20044;-75
2022/05/08 08:02:51;;;;;;;10.30;1.40;;;11.30;99.90;;;;;;5050248;28;20384;-75
2022/05/08 08:05:16;;;;;;;8.38;1.48;;;11.50;99.90;;;;;;5050648;28;20194;-75
2022/05/08 08:07:42;;;;;;;9.45;1.77;;;11.70;99.90;;;;;;5044490;28;20041;-76
2022/05/08 08:10:08;;;;;;;15.65;2.03;;;11.90;99.90;;;;;;5050411;28;20041;-77
2022/05/08 08:12:34;;;;;;;12.15;1.92;;;11.90;99.90;;;;;;5049721;28;20037;-75
2022/05/08 08:15:00;;;;;;;10.70;1.90;;;11.90;99.90;;;;;;5029534;28;20055;-76
2022/05/08 08:17:27;;;;;;;7.78;1.90;;;11.90;99.90;;;;;;5044069;28;20033;-76
2022/05/08 08:19:53;;;;;;;7.78;1.67;;;12.10;99.90;;;;;;5044868;28;20065;-76
2022/05/08 08:22:19;;;;;;;10.23;1.65;;;12.30;99.90;;;;;;5040251;28;20045;-77
2022/05/08 08:24:46;;;;;;;6.65;1.58;;;12.50;99.90;;;;;;5042760;28;20091;-76
2022/05/08 08:27:16;;;;;;;7.95;1.80;;;12.70;99.90;;;;;;5044250;28;20049;-76
2022/05/08 08:29:42;;;;;;;12.05;1.63;;;12.80;99.90;;;;;;5044982;28;20049;-75
2022/05/08 08:32:08;;;;;;;8.23;1.67;;;13.00;99.90;;;;;;5025744;28;20102;-75
2022/05/08 08:34:33;;;;;;;12.40;1.73;;;13.10;99.90;;;;;;5012452;28;20041;-76
2022/05/08 08:36:59;;;;;;;7.47;1.58;;;13.10;99.90;;;;;;5023553;28;20102;-76
2022/05/08 08:39:24;;;;;;;8.13;1.58;;;13.20;99.90;;;;;;5044177;28;20059;-75
2022/05/08 08:42:00;;;;;;;11.23;2.00;;;13.20;99.90;;;;;;5044524;28;20037;-76
2022/05/08 08:49:58;;;;;;;;;;;13.40;99.90;;;;;;5040595;28;20500;-76
2022/05/08 08:52:26;;;;;;;10.80;1.65;;;13.50;99.90;;;;;;5024308;28;19929;-76
2022/05/08 08:54:52;;;;;;;11.52;1.88;;;13.60;99.90;;;;;;5028992;28;20051;-75
2022/05/08 08:57:17;;;;;;;12.32;2.17;;;13.60;99.90;;;;;;5052002;28;20044;-75
2022/05/08 08:59:43;;;;;;;12.23;1.67;;;13.70;99.90;;;;;;5044288;28;20048;-76
2022/05/08 09:02:20;;;;;;;39.55;3.97;;;13.70;99.90;;;;;;5047477;28;20048;-75
2022/05/08 09:04:48;;;;;;;13.68;2.35;;;13.80;99.90;;;;;;5049466;28;20496;-75
2022/05/08 09:07:42;;;;;;;12.48;2.25;;;13.80;99.90;;;;;;5049946;28;20044;-74
2022/05/08 09:10:22;;;;;;;9.95;1.67;;;13.90;99.90;;;;;;5031897;28;20446;-75
2022/05/08 09:12:54;;;;;;;9.75;2.08;;;13.90;99.90;;;;;;5032808;28;20049;-74
2022/05/08 09:15:22;;;;;;;11.00;2.10;;;14.00;99.90;;;;;;5050462;28;20045;-75
2022/05/08 09:17:50;;;;;;;15.10;2.97;;;14.10;99.90;;;;;;5041394;28;20053;-76
2022/05/08 09:20:35;;;;;;;14.40;2.30;;;14.20;99.90;;;;;;5050005;28;20062;-76
2022/05/08 09:23:20;;;;;;;11.45;1.92;;;14.30;99.90;;;;;;5039641;28;20041;-76
2022/05/08 09:25:53;;;;;;;8.02;1.77;;;14.40;99.90;;;;;;5048463;28;20492;-76
2022/05/08 09:28:28;;;;;;;11.90;2.08;;;14.40;99.90;;;;;;5049152;28;20037;-76
2022/05/08 09:31:06;;;;;;;18.17;2.45;;;14.50;99.40;;;;;;5049293;28;20056;-76
2022/05/08 09:33:42;;;;;;;101.05;8.43;;;14.60;99.50;;;;;;5059860;28;20053;-78
2022/05/08 09:36:22;;;;;;;12.75;2.03;;;14.70;99.40;;;;;;5032063;28;20057;-78
2022/05/08 09:38:52;;;;;;;136.38;8.73;;;14.90;99.60;;;;;;5029984;28;20091;-76
2022/05/08 09:41:20;;;;;;;11.85;2.17;;;15.10;99.90;;;;;;5065543;28;20040;-76
2022/05/08 09:43:46;;;;;;;8.52;1.60;;;15.20;99.10;;;;;;5032511;28;20480;-77
2022/05/08 09:46:12;;;;;;;13.40;2.28;;;15.30;99.30;;;;;;5028890;28;20127;-77
2022/05/08 09:48:38;;;;;;;10.07;1.90;;;15.40;99.30;;;;;;5026345;28;20128;-77
2022/05/08 09:51:09;;;;;;;11.57;1.70;;;15.40;98.60;;;;;;5066879;28;20136;-78
2022/05/08 09:53:39;;;;;;;8.25;1.48;;;15.40;97.50;;;;;;5048980;28;20036;-75
2022/05/08 09:56:10;;;;;;;16.33;1.92;;;15.40;97.80;;;;;;5032782;28;20048;-75
2022/05/08 09:58:39;;;;;;;11.85;2.15;;;15.50;97.90;;;;;;5030802;28;20496;-76
2022/05/08 10:01:07;;;;;;;10.00;1.70;;;15.50;97.10;;;;;;5060020;28;20099;-77
2022/05/08 10:03:33;;;;;;;8.27;2.00;;;15.60;97.50;;;;;;5045388;28;20045;-76
2022/05/08 10:06:02;;;;;;;13.50;2.38;;;15.70;97.70;;;;;;5060909;28;20049;-76
2022/05/08 10:08:30;;;;;;;11.00;2.03;;;15.70;97.30;;;;;;5029029;28;20062;-76
2022/05/08 10:13:55;;;;;;;9.40;2.10;;;15.70;94.40;;;;;;5048387;28;20049;-77
2022/05/08 10:16:58;;;;;;;15.18;1.73;;;15.70;95.90;;;;;;5047959;28;20047;-76
2022/05/08 10:19:33;;;;;;;8.52;2.08;;;15.80;96.20;;;;;;5046973;28;20057;-76
2022/05/08 10:22:00;;;;;;;10.10;1.70;;;15.90;96.50;;;;;;5030194;28;20090;-75
2022/05/08 10:24:33;;;;;;;11.90;2.42;;;15.90;95.90;;;;;;5029868;28;20049;-75
2022/05/08 10:27:17;;;;;;;13.27;1.88;;;15.90;95.60;;;;;;5051292;28;20616;-77
2022/05/08 10:29:49;;;;;;;6.82;1.92;;;16.00;94.80;;;;;;5047618;28;20048;-76
2022/05/08 10:32:32;;;;;;;10.63;2.10;;;16.10;96.20;;;;;;5044821;28;20076;-81
2022/05/08 10:35:18;;;;;;;7.82;2.28;;;16.20;96.50;;;;;;5049257;28;20056;-81
2022/05/08 10:38:03;;;;;;;9.40;2.10;;;16.30;95.00;;;;;;5050166;28;20488;-78
2022/05/08 10:40:34;;;;;;;9.98;1.83;;;16.40;94.60;;;;;;5061521;28;20073;-76
2022/05/08 10:43:19;;;;;;;8.98;1.98;;;16.40;96.20;;;;;;5060408;28;20045;-78
2022/05/08 10:45:46;;;;;;;10.80;2.28;;;16.60;95.80;;;;;;5051703;28;20055;-76
2022/05/08 10:48:20;;;;;;;10.25;2.30;;;16.60;95.30;;;;;;5050475;28;20045;-73
2022/05/08 10:50:51;;;;;;;9.77;1.85;;;16.60;94.20;;;;;;5047011;28;20048;-76
2022/05/08 10:53:27;;;;;;;8.57;2.30;;;16.70;93.60;;;;;;5026775;28;20133;-76
2022/05/08 10:56:06;;;;;;;8.32;2.33;;;16.60;93.80;;;;;;5032424;28;20053;-75
2022/05/08 10:58:34;;;;;;;7.88;2.17;;;16.70;93.50;;;;;;5026717;28;20060;-75
2022/05/08 11:01:03;;;;;;;10.02;1.90;;;16.80;94.70;;;;;;5047595;28;20492;-76
2022/05/08 11:03:29;;;;;;;10.35;2.42;;;16.80;94.00;;;;;;5027317;28;20052;-74
2022/05/08 11:05:56;;;;;;;11.45;2.17;;;16.90;93.80;;;;;;5029475;28;20092;-75
2022/05/08 11:08:31;;;;;;;13.70;2.40;;;17.00;94.20;;;;;;5029121;28;20528;-76
2022/05/08 11:10:58;;;;;;;11.18;2.17;;;17.10;93.50;;;;;;5034053;28;20504;-76
2022/05/08 11:13:26;;;;;;;11.38;2.30;;;17.20;93.40;;;;;;5047526;28;20041;-77
2022/05/08 11:15:52;;;;;;;16.05;2.78;;;17.20;92.20;;;;;;5030930;28;20451;-77
2022/05/08 11:18:26;;;;;;;13.63;2.40;;;17.30;94.30;;;;;;5062570;28;20128;-78
2022/05/08 11:21:00;;;;;;;15.48;2.30;;;17.20;93.50;;;;;;5046868;28;20491;-77
2022/05/08 11:23:27;;;;;;;11.23;1.95;;;17.20;93.10;;;;;;5040873;28;20057;-81
2022/05/08 11:25:55;;;;;;;12.70;2.05;;;17.10;92.10;;;;;;5029466;28;20037;-78
2022/05/08 11:28:25;;;;;;;9.75;1.83;;;17.10;93.70;;;;;;5047478;28;20514;-80
2022/05/08 11:30:52;;;;;;;14.02;2.08;;;17.20;93.40;;;;;;5026924;28;20060;-80
2022/05/08 11:36:07;;;;;;;15.18;2.47;;;17.40;92.40;;;;;;5044600;28;20041;-79
2022/05/08 11:38:47;;;;;;;9.98;2.35;;;17.50;93.20;;;;;;5049067;28;20233;-76
2022/05/08 11:41:19;;;;;;;11.35;2.45;;;17.50;91.10;;;;;;5027450;28;20042;-77
2022/05/08 11:43:50;;;;;;;8.65;2.38;;;17.50;92.50;;;;;;5026458;28;20227;-79
2022/05/08 11:46:20;;;;;;;7.97;1.90;;;17.60;91.70;;;;;;5030189;28;20045;-79
2022/05/08 11:48:48;;;;;;;8.63;2.30;;;17.70;92.40;;;;;;5029970;28;20041;-80
2022/05/08 11:51:18;;;;;;;7.65;1.52;;;17.70;92.80;;;;;;5049521;28;20047;-80
2022/05/08 11:53:45;;;;;;;10.63;2.00;;;17.90;91.00;;;;;;5049302;28;20036;-81
2022/05/08 11:56:26;;;;;;;6.90;1.60;;;18.00;90.20;;;;;;5050435;28;20049;-80
2022/05/08 11:58:58;;;;;;;10.00;1.70;;;18.00;86.60;;;;;;5063763;28;20048;-80
2022/05/08 12:01:31;;;;;;;8.60;1.80;;;18.00;89.70;;;;;;5048134;28;20512;-80
2022/05/08 12:04:18;;;;;;;9.55;2.08;;;18.10;90.80;;;;;;5030466;28;20129;-80
2022/05/08 12:07:07;;;;;;;8.65;1.90;;;18.20;91.70;;;;;;5047607;28;20175;-81
2022/05/08 12:09:41;;;;;;;6.80;1.88;;;18.30;87.30;;;;;;5030174;28;20055;-80
2022/05/08 12:12:30;;;;;;;9.88;1.75;;;18.30;86.50;;;;;;5031055;28;20061;-80
2022/05/08 12:15:02;;;;;;;8.18;1.75;;;18.30;85.00;;;;;;5032270;28;20049;-80
2022/05/08 12:17:54;;;;;;;7.03;1.77;;;18.40;89.00;;;;;;5049652;28;20499;-80
2022/05/08 12:20:28;;;;;;;10.55;1.92;;;18.50;87.60;;;;;;5031838;28;20460;-81
2022/05/08 12:23:08;;;;;;;11.07;2.10;;;18.60;89.60;;;;;;5026735;28;20095;-80
2022/05/08 12:25:38;;;;;;;10.15;1.88;;;18.70;90.40;;;;;;5028293;28;20082;-81
2022/05/08 12:28:07;;;;;;;9.80;1.95;;;18.80;89.90;;;;;;5032007;28;20072;-81
2022/05/08 12:30:39;;;;;;;11.05;2.22;;;18.80;88.90;;;;;;5065579;28;20120;-80
2022/05/08 12:33:05;;;;;;;9.90;1.55;;;18.70;81.00;;;;;;5032288;28;20037;-81
2022/05/08 12:35:36;;;;;;;6.05;1.58;;;18.70;86.20;;;;;;5034689;28;20041;-81
2022/05/08 12:38:02;;;;;;;11.48;1.75;;;18.70;83.30;;;;;;5053735;28;20033;-81
2022/05/08 12:40:29;;;;;;;10.57;1.70;;;18.70;84.60;;;;;;5035762;28;20073;-81
2022/05/08 12:42:54;;;;;;;8.02;1.83;;;18.70;85.10;;;;;;5035447;28;20049;-81
2022/05/08 12:45:20;;;;;;;11.98;2.00;;;18.70;85.30;;;;;;5036281;28;20049;-81
2022/05/08 12:47:45;;;;;;;8.55;1.85;;;18.70;85.50;;;;;;5053659;28;20049;-81
2022/05/08 12:50:11;;;;;;;7.65;1.63;;;18.90;89.10;;;;;;5053378;28;20124;-81
2022/05/08 12:52:37;;;;;;;8.50;1.88;;;19.00;89.10;;;;;;5035765;28;20114;-80
2022/05/08 12:55:04;;;;;;;11.57;2.22;;;19.10;83.10;;;;;;5030705;28;20053;-80
2022/05/08 13:00:14;;;;;;;9.25;1.60;;;19.30;84.20;;;;;;5036070;28;20080;-80
2022/05/08 13:02:39;;;;;;;7.78;1.85;;;19.30;83.90;;;;;;5046341;28;20056;-81
2022/05/08 13:05:05;;;;;;;8.07;1.63;;;19.40;86.70;;;;;;5034028;28;20508;-80
2022/05/08 13:07:34;;;;;;;10.98;2.10;;;19.40;83.00;;;;;;5053612;28;20041;-80
2022/05/08 13:09:59;;;;;;;5.18;1.52;;;19.50;82.00;;;;;;5050763;28;20051;-81
2022/05/08 13:12:25;;;;;;;8.10;1.83;;;19.40;85.70;;;;;;5035782;28;20048;-80
2022/05/08 13:14:51;;;;;;;6.38;1.52;;;19.50;86.90;;;;;;5053105;28;20049;-80
2022/05/08 13:17:16;;;;;;;9.23;2.22;;;19.60;87.90;;;;;;5035320;28;20112;-80